createdAt,value
2022-09-05T00:15:14.641Z,1623.36365
2022-09-05T00:31:45.630Z,2961.5271
2022-09-05T00:46:54.676Z,3172.9873
2022-09-05T01:01:57.089Z,2321.72461
2022-09-05T01:16:59.530Z,1411.90344
2022-09-05T01:32:01.842Z,1187.4303
2022-09-05T01:47:04.219Z,944.52222
2022-09-05T02:02:08.926Z,576.9068
2022-09-05T02:17:27.323Z,199.53168
2022-09-05T02:32:51.640Z,36.86998
2022-09-05T02:47:54.191Z,4.33765
2022-09-05T03:02:56.465Z,0
2022-09-05T03:18:19.936Z,0
2022-09-05T03:33:23.544Z,0
2022-09-05T03:48:53.918Z,0
2022-09-05T04:08:13.520Z,0
2022-09-05T04:23:35.022Z,0
2022-09-05T04:38:37.252Z,0
2022-09-05T04:53:39.410Z,0
2022-09-05T05:08:41.761Z,0
2022-09-05T05:23:44.037Z,0
2022-09-05T05:38:46.392Z,0
2022-09-05T05:53:51.767Z,0
2022-09-05T06:12:40.105Z,0
2022-09-05T06:30:05.751Z,0
2022-09-05T06:45:27.867Z,0
2022-09-05T07:00:31.200Z,0
2022-09-05T07:15:33.491Z,0
2022-09-05T07:30:35.841Z,0
2022-09-05T07:45:38.129Z,0
2022-09-05T08:00:44.939Z,0
2022-09-05T08:16:13.301Z,0
2022-09-05T08:31:16.442Z,0
2022-09-05T08:46:46.800Z,0
2022-09-05T09:02:37.408Z,0
2022-09-05T09:17:50.548Z,0
2022-09-05T09:32:56.318Z,0
2022-09-05T09:48:01.078Z,0
2022-09-05T10:06:20.099Z,0
2022-09-05T10:26:01.809Z,0
2022-09-05T10:41:20.059Z,0
2022-09-05T10:56:26.093Z,0
2022-09-05T11:11:35.226Z,0
2022-09-05T11:26:37.652Z,0
2022-09-05T11:41:39.981Z,0
2022-09-05T11:56:45.889Z,0
2022-09-05T12:11:48.433Z,0
2022-09-05T12:27:38.513Z,0
2022-09-05T12:42:54.784Z,1.08441
2022-09-05T13:02:57.934Z,13.01294
2022-09-05T13:18:13.116Z,120.36965
2022-09-05T13:38:05.336Z,279.77811
2022-09-05T13:53:28.945Z,556.30298
2022-09-05T14:08:38.276Z,798.12671
2022-09-05T14:23:40.635Z,2357.51001
2022-09-05T14:38:43.020Z,4060.03589
2022-09-05T14:54:01.420Z,3946.17261
2022-09-05T15:11:24.047Z,31820.96484
2022-09-05T15:27:22.143Z,35152.27734
2022-09-05T15:42:24.632Z,6176.80664
2022-09-05T15:57:27.226Z,5442.66016
2022-09-05T16:12:30.137Z,5582.54932
2022-09-05T16:27:32.934Z,5881.84668
2022-09-05T16:42:46.402Z,4227.03516
2022-09-05T16:57:50.023Z,2546.19775
2022-09-05T17:12:53.676Z,7048.67334
2022-09-05T17:29:24.241Z,7235.19189
2022-09-05T17:44:40.082Z,7497.61963
2022-09-05T17:59:44.630Z,8425.87598
2022-09-05T18:14:50.112Z,2063.63452
2022-09-05T18:29:57.975Z,8075.61084
2022-09-05T18:45:01.816Z,2544.02881
2022-09-05T19:00:04.225Z,2280.51685
2022-09-05T19:15:06.886Z,8529.97852
2022-09-05T19:36:44.679Z,8269.7207
2022-09-05T19:52:21.217Z,8526.72559
2022-09-05T20:07:23.564Z,8509.375
2022-09-05T20:22:48.606Z,8082.11719
2022-09-05T20:43:19.663Z,7770.89111
2022-09-05T20:58:37.186Z,7762.21582
2022-09-05T21:13:51.978Z,5124.92773
2022-09-05T21:28:55.521Z,7804.50781
2022-09-05T21:47:33.879Z,8069.104
2022-09-05T22:02:48.317Z,9221.83301
2022-09-05T22:17:50.771Z,10092.61523
2022-09-05T22:32:52.997Z,11094.61133
2022-09-05T22:47:55.199Z,11595.60938
2022-09-05T23:02:57.697Z,12870.87695
2022-09-05T23:17:59.910Z,12730.98828
2022-09-05T23:33:02.076Z,12645.31934
2022-09-05T23:48:04.237Z,9665.35742
